Aviation Digital Data Service (ADDS)

Output produced by METARs form (2334 UTC 25 October 2014)
found at http://aviationweather.gov/adds/metars/
 
KBGR 252320Z 2600/2624 VRB02KT P6SM SCT100 BKN200 
     FM260300 VRB02KT P6SM BKN045 OVC090 
     FM260500 15004KT P6SM VCSH OVC035 
     FM260800 22004KT 6SM -SHRA OVC020 
     FM261300 27004KT P6SM VCSH BKN035 
     FM261800 28008KT P6SM BKN040